Time;durP1;ratioP1;P1;durP2;ratioP2;P2;SDS_P1;SDS_P2;PMS_P1;PMS_P2;Temp;Humidity;BMP_temperature;BMP_pressure;BME280_temperature;BME280_humidity;BME280_pressure;Samples;Min_cycle;Max_cycle;Signal;HPM_P1;HPM_P2
2022/11/19 00:01:57;;;;;;;20.67;4.30;;;;;;;;;;4995442;28;20096;-49
2022/11/19 00:04:24;;;;;;;17.63;3.83;;;;;;;;;;4993982;28;20035;-57
2022/11/19 00:06:51;;;;;;;14.60;3.65;;;;;;;;;;4994228;28;20392;-56
2022/11/19 00:09:18;;;;;;;14.15;3.35;;;;;;;;;;4994122;28;20030;-50
2022/11/19 00:14:31;;;;;;;14.02;3.55;;;;;;;;;;4993045;28;20100;-56
2022/11/19 00:16:58;;;;;;;15.18;3.83;;;;;;;;;;5008846;28;20400;-51
2022/11/19 00:19:25;;;;;;;20.90;4.15;;;;;;;;;;4993778;28;20034;-51
2022/11/19 00:21:52;;;;;;;18.65;3.97;;;;;;;;;;4994139;28;20077;-54
2022/11/19 00:24:19;;;;;;;16.70;3.75;;;;;;;;;;4993847;28;20114;-50
2022/11/19 00:26:46;;;;;;;11.68;3.60;;;;;;;;;;4993862;28;20026;-49
2022/11/19 00:29:13;;;;;;;18.38;3.72;;;;;;;;;;4993895;28;20884;-54
2022/11/19 00:31:40;;;;;;;21.50;4.18;;;;;;;;;;4993829;28;20495;-52
2022/11/19 00:34:06;;;;;;;19.88;3.72;;;;;;;;;;4994070;28;20042;-56
2022/11/19 00:36:33;;;;;;;17.30;4.38;;;;;;;;;;4993824;28;20563;-52
2022/11/19 00:39:00;;;;;;;17.00;3.80;;;;;;;;;;4993603;28;20027;-49
2022/11/19 00:41:27;;;;;;;19.27;3.90;;;;;;;;;;4993628;28;20451;-49
2022/11/19 00:43:54;;;;;;;15.43;4.00;;;;;;;;;;4994973;28;20484;-52
2022/11/19 00:46:23;;;;;;;19.73;3.60;;;;;;;;;;4992927;28;20089;-55
2022/11/19 00:48:51;;;;;;;22.88;4.20;;;;;;;;;;4992185;28;20072;-54
2022/11/19 00:51:19;;;;;;;28.35;5.22;;;;;;;;;;4994351;28;20661;-57
2022/11/19 00:53:46;;;;;;;23.88;5.88;;;;;;;;;;5008967;28;20046;-56
2022/11/19 00:56:14;;;;;;;50.45;11.30;;;;;;;;;;4994036;28;20041;-55
2022/11/19 00:58:42;;;;;;;32.13;7.57;;;;;;;;;;4994223;28;20072;-54
2022/11/19 01:01:09;;;;;;;41.47;10.30;;;;;;;;;;4994103;28;20558;-54
2022/11/19 01:03:37;;;;;;;49.42;12.88;;;;;;;;;;4994078;28;20038;-56
2022/11/19 01:06:04;;;;;;;64.40;16.25;;;;;;;;;;4993937;28;20034;-55
2022/11/19 01:08:31;;;;;;;73.93;17.52;;;;;;;;;;4993346;28;20039;-55
2022/11/19 01:11:05;;;;;;;80.95;22.85;;;;;;;;;;4994044;28;20030;-54
2022/11/19 01:13:35;;;;;;;93.38;25.95;;;;;;;;;;4994254;28;20096;-53
2022/11/19 01:16:07;;;;;;;92.55;27.02;;;;;;;;;;4993690;28;20035;-53
2022/11/19 01:18:34;;;;;;;89.35;27.80;;;;;;;;;;4993341;28;20045;-54
2022/11/19 01:21:02;;;;;;;96.97;29.88;;;;;;;;;;4994008;28;20036;-59
2022/11/19 01:23:29;;;;;;;99.70;31.38;;;;;;;;;;5008866;28;20084;-54
2022/11/19 01:25:56;;;;;;;98.00;30.05;;;;;;;;;;4993696;28;20022;-57
2022/11/19 01:28:23;;;;;;;98.18;30.58;;;;;;;;;;4993435;28;20030;-53
2022/11/19 01:30:50;;;;;;;105.88;30.90;;;;;;;;;;4993945;28;20030;-58
2022/11/19 01:33:17;;;;;;;110.60;32.80;;;;;;;;;;4993071;28;20447;-54
2022/11/19 01:35:44;;;;;;;93.82;30.20;;;;;;;;;;4993741;28;20041;-59
2022/11/19 01:38:11;;;;;;;90.43;30.88;;;;;;;;;;4993460;28;20030;-56
2022/11/19 01:40:42;;;;;;;95.10;31.30;;;;;;;;;;4993203;28;20034;-57
2022/11/19 01:43:12;;;;;;;93.88;31.98;;;;;;;;;;4993510;28;20420;-55
2022/11/19 01:45:47;;;;;;;104.32;31.75;;;;;;;;;;4992233;28;20027;-58
2022/11/19 01:48:14;;;;;;;88.13;29.20;;;;;;;;;;4993427;28;20457;-58
2022/11/19 01:50:44;;;;;;;86.10;30.02;;;;;;;;;;4993585;28;20034;-59
2022/11/19 01:53:12;;;;;;;93.85;29.90;;;;;;;;;;4991186;28;20050;-58
2022/11/19 01:55:39;;;;;;;88.18;29.52;;;;;;;;;;4991918;28;20394;-58
2022/11/19 01:58:07;;;;;;;86.00;28.65;;;;;;;;;;4991994;28;20030;-55
2022/11/19 02:00:34;;;;;;;87.15;27.70;;;;;;;;;;4992280;28;20043;-58
2022/11/19 02:03:01;;;;;;;82.35;28.38;;;;;;;;;;4992275;28;20030;-57
2022/11/19 02:05:28;;;;;;;78.30;27.98;;;;;;;;;;4991989;28;20033;-57
2022/11/19 02:07:57;;;;;;;75.25;27.05;;;;;;;;;;4993010;28;20025;-58
2022/11/19 02:10:36;;;;;;;76.90;27.05;;;;;;;;;;4993070;28;20168;-58
2022/11/19 02:13:11;;;;;;;72.93;26.88;;;;;;;;;;5007918;28;20396;-51
2022/11/19 02:15:38;;;;;;;71.88;25.38;;;;;;;;;;5007863;28;20392;-55
2022/11/19 02:18:10;;;;;;;67.10;24.98;;;;;;;;;;4992758;28;20054;-57
2022/11/19 02:20:37;;;;;;;74.78;26.80;;;;;;;;;;4992055;28;20488;-54
2022/11/19 02:23:15;;;;;;;70.68;24.05;;;;;;;;;;4992538;28;20027;-55
2022/11/19 02:25:42;;;;;;;73.82;25.23;;;;;;;;;;4990330;28;20061;-55
2022/11/19 02:28:28;;;;;;;62.33;24.88;;;;;;;;;;4990236;28;20018;-59
2022/11/19 02:31:03;;;;;;;68.75;24.42;;;;;;;;;;4990281;28;20096;-55
2022/11/19 02:33:36;;;;;;;61.15;24.73;;;;;;;;;;4990230;28;20026;-54
2022/11/19 02:36:15;;;;;;;54.30;23.33;;;;;;;;;;4992405;28;20022;-57
2022/11/19 02:38:48;;;;;;;64.53;24.10;;;;;;;;;;4991783;28;20097;-57
2022/11/19 02:41:34;;;;;;;63.35;23.17;;;;;;;;;;4991010;28;20037;-57
2022/11/19 02:47:08;;;;;;;55.58;22.58;;;;;;;;;;4984460;28;20041;-57
2022/11/19 02:49:37;;;;;;;55.15;22.40;;;;;;;;;;4992596;28;20507;-56
2022/11/19 02:52:04;;;;;;;53.20;22.52;;;;;;;;;;4989992;28;20108;-57
2022/11/19 02:54:32;;;;;;;58.78;22.35;;;;;;;;;;4992511;28;20038;-59
2022/11/19 02:56:59;;;;;;;51.83;21.60;;;;;;;;;;4992388;28;20108;-56
2022/11/19 03:05:14;;;;;;;53.03;21.75;;;;;;;;;;4990588;28;20088;-59
2022/11/19 03:07:41;;;;;;;53.90;21.17;;;;;;;;;;4992193;28;20061;-59
2022/11/19 03:10:09;;;;;;;48.00;20.00;;;;;;;;;;4992378;28;20104;-58
2022/11/19 03:12:45;;;;;;;50.13;21.10;;;;;;;;;;4992324;28;20106;-58
2022/11/19 03:18:02;;;;;;;53.08;19.85;;;;;;;;;;4973178;28;20057;-55
2022/11/19 03:20:30;;;;;;;54.17;20.95;;;;;;;;;;4973460;28;20461;-57
2022/11/19 03:23:04;;;;;;;45.67;19.83;;;;;;;;;;4973362;28;20397;-54
2022/11/19 03:25:49;;;;;;;45.75;19.58;;;;;;;;;;4973152;28;20113;-57
2022/11/19 03:28:19;;;;;;;48.35;20.15;;;;;;;;;;4973449;28;20086;-56
2022/11/19 03:30:48;;;;;;;46.92;20.50;;;;;;;;;;4973397;28;20089;-55
2022/11/19 03:33:21;;;;;;;43.03;19.05;;;;;;;;;;4973319;28;20036;-55
2022/11/19 03:35:52;;;;;;;46.00;19.25;;;;;;;;;;4973054;28;20031;-56
2022/11/19 03:38:27;;;;;;;49.55;19.45;;;;;;;;;;4973347;28;20387;-56
2022/11/19 03:40:54;;;;;;;42.55;18.65;;;;;;;;;;4974264;28;20466;-55
2022/11/19 03:43:23;;;;;;;45.47;19.73;;;;;;;;;;4976769;28;20081;-58
2022/11/19 03:45:52;;;;;;;45.33;18.90;;;;;;;;;;4976428;28;20030;-57
2022/11/19 03:48:21;;;;;;;48.92;20.27;;;;;;;;;;4976747;28;20507;-57
2022/11/19 03:51:11;;;;;;;45.80;19.75;;;;;;;;;;4976624;28;20027;-58
2022/11/19 03:53:38;;;;;;;40.88;18.63;;;;;;;;;;4976066;28;20544;-57
2022/11/19 03:56:07;;;;;;;39.95;18.65;;;;;;;;;;4976527;28;20473;-57
2022/11/19 03:58:42;;;;;;;39.03;18.27;;;;;;;;;;4991589;28;20042;-55
2022/11/19 04:01:09;;;;;;;41.28;18.60;;;;;;;;;;4976516;28;20503;-56
2022/11/19 04:03:37;;;;;;;39.70;17.50;;;;;;;;;;4976503;28;20520;-55
2022/11/19 04:06:05;;;;;;;39.88;17.05;;;;;;;;;;4976312;28;20548;-54
2022/11/19 04:08:32;;;;;;;37.25;17.38;;;;;;;;;;4976724;28;20493;-55
2022/11/19 04:10:59;;;;;;;35.45;16.50;;;;;;;;;;4976105;28;20031;-55
2022/11/19 04:13:26;;;;;;;37.97;17.95;;;;;;;;;;4995523;28;20045;-57
2022/11/19 04:15:53;;;;;;;36.53;16.92;;;;;;;;;;4995518;28;20019;-56
2022/11/19 04:18:20;;;;;;;37.72;16.95;;;;;;;;;;4995418;28;20527;-54
2022/11/19 04:20:47;;;;;;;32.65;16.50;;;;;;;;;;4995405;28;20027;-55
2022/11/19 04:23:14;;;;;;;35.17;16.75;;;;;;;;;;4995435;28;20489;-56
2022/11/19 04:25:45;;;;;;;35.33;17.17;;;;;;;;;;4995390;28;20030;-55
2022/11/19 04:28:12;;;;;;;31.70;16.33;;;;;;;;;;4995504;28;20027;-57
2022/11/19 04:30:39;;;;;;;34.78;16.75;;;;;;;;;;4995136;28;20038;-55
2022/11/19 04:33:06;;;;;;;35.33;16.35;;;;;;;;;;4995259;28;20396;-54
2022/11/19 04:35:33;;;;;;;31.40;15.50;;;;;;;;;;4995270;28;20084;-56
2022/11/19 04:38:00;;;;;;;32.65;15.77;;;;;;;;;;4995250;28;20026;-57
2022/11/19 04:40:27;;;;;;;32.13;16.58;;;;;;;;;;4995187;28;20396;-57
2022/11/19 04:42:54;;;;;;;34.95;15.82;;;;;;;;;;4994937;28;20093;-56
2022/11/19 04:45:21;;;;;;;32.22;15.25;;;;;;;;;;4995056;28;20480;-55
2022/11/19 04:47:48;;;;;;;32.58;15.50;;;;;;;;;;4995114;28;20033;-56
2022/11/19 04:50:15;;;;;;;32.17;16.00;;;;;;;;;;4995055;28;20023;-54
2022/11/19 04:52:42;;;;;;;33.97;15.93;;;;;;;;;;4993978;28;20026;-57
2022/11/19 04:55:09;;;;;;;31.80;15.55;;;;;;;;;;4994621;28;20061;-56
2022/11/19 04:57:36;;;;;;;30.48;14.70;;;;;;;;;;4994898;28;20110;-57
2022/11/19 05:00:04;;;;;;;30.98;15.65;;;;;;;;;;4994836;28;20149;-57
2022/11/19 05:02:31;;;;;;;28.60;15.32;;;;;;;;;;4994740;28;20526;-57
2022/11/19 05:04:58;;;;;;;30.42;15.50;;;;;;;;;;4994524;28;20042;-55
2022/11/19 05:07:25;;;;;;;28.92;14.85;;;;;;;;;;4994520;28;20027;-56
2022/11/19 05:09:52;;;;;;;27.33;14.65;;;;;;;;;;4994666;28;20023;-57
2022/11/19 05:12:19;;;;;;;30.48;14.65;;;;;;;;;;4994465;28;20019;-55
2022/11/19 05:14:46;;;;;;;30.45;15.23;;;;;;;;;;4994293;28;20049;-55
2022/11/19 05:17:13;;;;;;;28.42;13.77;;;;;;;;;;4994363;28;20038;-57
2022/11/19 05:19:40;;;;;;;26.30;13.75;;;;;;;;;;4994438;28;20428;-54
2022/11/19 05:22:07;;;;;;;27.60;13.63;;;;;;;;;;4994172;28;20018;-57
2022/11/19 05:24:34;;;;;;;25.63;13.45;;;;;;;;;;4994257;28;20488;-57
2022/11/19 05:27:01;;;;;;;26.98;13.77;;;;;;;;;;4994239;28;20073;-56
2022/11/19 05:29:28;;;;;;;26.48;13.32;;;;;;;;;;4994200;28;20026;-56
2022/11/19 05:31:55;;;;;;;24.85;13.75;;;;;;;;;;4994134;28;20045;-53
2022/11/19 05:34:22;;;;;;;25.25;12.95;;;;;;;;;;4994034;28;20169;-57
2022/11/19 05:36:49;;;;;;;25.10;12.57;;;;;;;;;;4993880;28;20540;-55
2022/11/19 05:39:16;;;;;;;24.52;13.30;;;;;;;;;;4994070;28;20037;-55
2022/11/19 05:41:43;;;;;;;24.65;13.25;;;;;;;;;;4994093;28;20033;-57
2022/11/19 05:44:10;;;;;;;25.40;12.82;;;;;;;;;;4993870;28;20034;-54
2022/11/19 05:46:36;;;;;;;24.88;13.10;;;;;;;;;;4993951;28;20030;-56
2022/11/19 05:49:03;;;;;;;21.95;12.50;;;;;;;;;;4993862;28;20033;-57
2022/11/19 05:51:30;;;;;;;22.70;12.18;;;;;;;;;;4993691;28;20022;-57
2022/11/19 05:53:57;;;;;;;24.17;12.93;;;;;;;;;;4993691;28;20039;-54
2022/11/19 05:56:24;;;;;;;25.58;12.27;;;;;;;;;;4993759;28;20026;-58
2022/11/19 05:58:51;;;;;;;23.75;12.52;;;;;;;;;;4993759;28;20488;-58
2022/11/19 06:01:24;;;;;;;24.75;12.35;;;;;;;;;;4992370;28;20033;-55
2022/11/19 06:03:51;;;;;;;22.52;11.77;;;;;;;;;;4993195;28;20461;-58
2022/11/19 06:06:18;;;;;;;24.85;11.85;;;;;;;;;;4993608;28;20365;-53
2022/11/19 06:08:46;;;;;;;21.63;11.27;;;;;;;;;;4993590;28;20026;-57
2022/11/19 06:11:46;;;;;;;26.25;11.38;;;;;;;;;;4993427;28;20428;-54
2022/11/19 06:14:00;;;;;;;22.50;11.75;;;;;;;;;;4992968;28;20050;-54
2022/11/19 06:16:27;;;;;;;25.48;12.68;;;;;;;;;;4992861;28;20479;-57
2022/11/19 06:18:54;;;;;;;20.60;10.90;;;;;;;;;;4993206;28;20041;-53
2022/11/19 06:21:21;;;;;;;21.95;11.88;;;;;;;;;;4993133;28;20027;-51
2022/11/19 06:23:48;;;;;;;21.17;10.90;;;;;;;;;;4993333;28;20140;-57
2022/11/19 06:26:25;;;;;;;18.60;10.75;;;;;;;;;;4993340;28;20061;-51
2022/11/19 06:28:52;;;;;;;26.92;11.40;;;;;;;;;;4993374;28;20026;-52
2022/11/19 06:31:20;;;;;;;19.70;11.20;;;;;;;;;;4993163;28;20026;-53
2022/11/19 06:33:47;;;;;;;21.65;11.45;;;;;;;;;;4992769;28;20054;-55
2022/11/19 06:36:15;;;;;;;19.80;10.93;;;;;;;;;;4993067;28;20019;-53
2022/11/19 06:38:42;;;;;;;18.95;11.13;;;;;;;;;;4993121;28;20105;-53
2022/11/19 06:41:09;;;;;;;20.23;10.93;;;;;;;;;;4992953;28;20030;-56
2022/11/19 06:43:36;;;;;;;19.83;10.60;;;;;;;;;;4993118;28;20030;-56
2022/11/19 06:46:03;;;;;;;23.55;11.30;;;;;;;;;;4992989;28;20484;-55
2022/11/19 06:48:29;;;;;;;17.65;10.43;;;;;;;;;;4992976;28;20484;-55
2022/11/19 06:50:56;;;;;;;20.17;10.30;;;;;;;;;;4993094;28;20054;-57
2022/11/19 06:53:23;;;;;;;21.73;10.65;;;;;;;;;;4992996;28;20062;-56
2022/11/19 06:55:57;;;;;;;17.13;9.85;;;;;;;;;;4992993;28;20460;-53
2022/11/19 06:58:24;;;;;;;19.45;10.18;;;;;;;;;;4993122;28;20500;-55
2022/11/19 07:00:51;;;;;;;18.52;10.13;;;;;;;;;;4992857;28;20019;-53
2022/11/19 07:03:18;;;;;;;20.55;10.30;;;;;;;;;;4992928;28;20454;-53
2022/11/19 07:05:45;;;;;;;18.83;10.50;;;;;;;;;;4991614;28;20432;-56
2022/11/19 07:08:12;;;;;;;15.73;9.23;;;;;;;;;;4993025;28;20077;-56
2022/11/19 07:10:39;;;;;;;18.30;9.77;;;;;;;;;;4993009;28;20026;-55
2022/11/19 07:13:06;;;;;;;16.85;9.20;;;;;;;;;;4992935;28;20030;-53
2022/11/19 07:15:33;;;;;;;15.57;9.48;;;;;;;;;;4993058;28;20094;-56
2022/11/19 07:18:01;;;;;;;15.70;9.57;;;;;;;;;;4996487;28;20427;-52
2022/11/19 07:20:28;;;;;;;16.33;9.65;;;;;;;;;;4996606;28;20113;-56
2022/11/19 07:22:55;;;;;;;15.35;9.30;;;;;;;;;;4996650;28;20076;-52
2022/11/19 07:25:22;;;;;;;17.73;9.68;;;;;;;;;;4996472;28;20054;-54
2022/11/19 07:27:48;;;;;;;15.35;8.90;;;;;;;;;;4996306;28;20081;-55
2022/11/19 07:30:16;;;;;;;17.83;9.23;;;;;;;;;;4996408;28;20106;-51
2022/11/19 07:32:43;;;;;;;13.98;8.50;;;;;;;;;;4996329;28;20038;-54
2022/11/19 07:35:11;;;;;;;18.27;8.88;;;;;;;;;;4996286;28;20058;-55
2022/11/19 07:37:38;;;;;;;15.45;8.38;;;;;;;;;;4996117;28;20066;-55
2022/11/19 07:40:05;;;;;;;14.55;9.30;;;;;;;;;;4996311;28;20515;-56
2022/11/19 07:42:48;;;;;;;17.17;9.45;;;;;;;;;;4996267;28;20092;-56
2022/11/19 07:45:15;;;;;;;17.50;9.00;;;;;;;;;;4996170;28;20560;-54
2022/11/19 07:47:42;;;;;;;14.80;8.57;;;;;;;;;;5011151;28;20432;-57
2022/11/19 07:50:09;;;;;;;15.23;8.93;;;;;;;;;;4996118;28;20388;-56
2022/11/19 07:52:36;;;;;;;14.32;8.13;;;;;;;;;;5011616;28;20030;-54
2022/11/19 07:55:03;;;;;;;13.88;8.43;;;;;;;;;;5015744;28;20388;-56
2022/11/19 07:57:30;;;;;;;16.20;8.48;;;;;;;;;;5015585;28;20034;-55
2022/11/19 07:59:57;;;;;;;16.00;8.50;;;;;;;;;;5015490;28;20030;-55
2022/11/19 08:02:24;;;;;;;13.88;8.07;;;;;;;;;;5015338;28;20018;-55
2022/11/19 08:04:51;;;;;;;12.50;8.18;;;;;;;;;;5015171;28;20045;-56
2022/11/19 08:07:18;;;;;;;13.50;8.07;;;;;;;;;;5015360;28;20084;-56
2022/11/19 08:09:45;;;;;;;14.48;8.43;;;;;;;;;;5014023;28;20369;-54
2022/11/19 08:12:12;;;;;;;13.90;8.70;;;;;;;;;;5015151;28;20026;-57
2022/11/19 08:14:39;;;;;;;15.60;7.97;;;;;;;;;;5015159;28;20034;-52
2022/11/19 08:20:11;;;;;;;12.32;7.57;;;;;;;;;;4973814;28;20885;-54
2022/11/19 08:22:40;;;;;;;12.77;7.28;;;;;;;;;;4973880;28;20042;-54
2022/11/19 08:25:07;;;;;;;13.70;7.85;;;;;;;;;;4993994;28;20054;-51
2022/11/19 08:27:34;;;;;;;19.13;8.45;;;;;;;;;;5014833;28;20065;-54
2022/11/19 08:30:01;;;;;;;13.40;7.68;;;;;;;;;;5014885;28;20100;-53
2022/11/19 08:32:27;;;;;;;10.45;6.80;;;;;;;;;;5014676;28;20484;-56
2022/11/19 08:34:54;;;;;;;13.25;7.60;;;;;;;;;;5014797;28;20022;-53
2022/11/19 08:37:21;;;;;;;12.63;7.70;;;;;;;;;;5013469;28;20084;-56
2022/11/19 08:39:48;;;;;;;11.18;7.18;;;;;;;;;;5014712;28;20041;-56
2022/11/19 08:45:00;;;;;;;12.90;7.38;;;;;;;;;;5014681;28;20040;-53
2022/11/19 08:47:27;;;;;;;10.73;6.90;;;;;;;;;;5013315;28;20112;-55
2022/11/19 08:49:54;;;;;;;10.60;6.93;;;;;;;;;;5014468;28;20026;-55
2022/11/19 08:52:21;;;;;;;13.20;7.70;;;;;;;;;;5013272;28;20026;-55
2022/11/19 08:54:48;;;;;;;10.48;6.50;;;;;;;;;;5014289;28;20022;-54
2022/11/19 08:57:15;;;;;;;10.20;6.68;;;;;;;;;;5014460;28;20018;-55
2022/11/19 08:59:42;;;;;;;10.70;6.97;;;;;;;;;;5014388;28;20052;-54
2022/11/19 09:02:10;;;;;;;10.63;6.80;;;;;;;;;;5014124;28;20025;-52
2022/11/19 09:04:37;;;;;;;10.65;6.38;;;;;;;;;;5014238;28;20048;-56
2022/11/19 09:07:04;;;;;;;13.60;7.35;;;;;;;;;;5014254;28;20065;-51
2022/11/19 09:09:31;;;;;;;10.40;6.43;;;;;;;;;;5014193;28;20085;-53
2022/11/19 09:11:58;;;;;;;10.52;6.47;;;;;;;;;;5014181;28;20026;-56
2022/11/19 09:14:25;;;;;;;10.88;6.80;;;;;;;;;;5013907;28;20030;-53
2022/11/19 09:16:52;;;;;;;9.90;6.50;;;;;;;;;;5013467;28;20049;-54
2022/11/19 09:19:19;;;;;;;10.90;6.57;;;;;;;;;;5013179;28;20391;-52
2022/11/19 09:21:46;;;;;;;10.43;6.60;;;;;;;;;;5013188;28;20030;-52
2022/11/19 09:24:13;;;;;;;9.68;5.90;;;;;;;;;;5013113;28;20403;-55
2022/11/19 09:26:40;;;;;;;9.45;6.20;;;;;;;;;;5012910;28;20029;-56
2022/11/19 09:29:07;;;;;;;10.30;6.28;;;;;;;;;;5013050;28;20026;-55
2022/11/19 09:31:34;;;;;;;8.88;6.10;;;;;;;;;;5013062;28;20483;-56
2022/11/19 09:34:01;;;;;;;9.88;6.10;;;;;;;;;;5012732;28;20175;-53
2022/11/19 09:36:28;;;;;;;9.75;6.20;;;;;;;;;;5012928;28;20487;-56
2022/11/19 09:38:58;;;;;;;9.07;5.95;;;;;;;;;;5012182;28;20044;-52
2022/11/19 09:41:44;;;;;;;9.98;6.10;;;;;;;;;;5012887;28;20353;-56
2022/11/19 09:44:19;;;;;;;9.27;6.32;;;;;;;;;;5012730;28;20036;-56
2022/11/19 09:46:55;;;;;;;8.18;5.60;;;;;;;;;;5013004;28;20388;-54
2022/11/19 09:49:30;;;;;;;9.73;6.32;;;;;;;;;;5012761;28;20044;-55
2022/11/19 09:52:05;;;;;;;9.52;6.00;;;;;;;;;;5012507;28;20030;-53
2022/11/19 09:54:32;;;;;;;8.23;5.72;;;;;;;;;;5012452;28;20041;-55
2022/11/19 09:57:02;;;;;;;8.52;5.63;;;;;;;;;;5012645;28;20104;-55
2022/11/19 09:59:40;;;;;;;7.00;5.25;;;;;;;;;;5012508;28;20164;-53
2022/11/19 10:02:20;;;;;;;9.40;5.93;;;;;;;;;;5012550;28;20044;-57
2022/11/19 10:04:48;;;;;;;9.75;5.75;;;;;;;;;;5012365;28;20066;-56
2022/11/19 10:07:40;;;;;;;9.15;5.22;;;;;;;;;;5011119;28;20025;-52
2022/11/19 10:10:25;;;;;;;8.27;5.25;;;;;;;;;;5012202;28;20117;-54
2022/11/19 10:13:18;;;;;;;8.50;5.65;;;;;;;;;;5012366;28;20514;-55
2022/11/19 10:15:56;;;;;;;8.88;5.30;;;;;;;;;;5011905;28;20026;-54
2022/11/19 10:18:35;;;;;;;8.68;5.63;;;;;;;;;;4882159;28;3770781;-57
2022/11/19 10:21:17;;;;;;;7.43;5.15;;;;;;;;;;5013129;28;20032;-53
2022/11/19 10:23:49;;;;;;;10.57;5.70;;;;;;;;;;5012390;28;20030;-54
2022/11/19 10:26:18;;;;;;;10.85;5.47;;;;;;;;;;5012434;28;20030;-54
2022/11/19 10:28:51;;;;;;;9.95;5.20;;;;;;;;;;5012465;28;20387;-56
2022/11/19 10:31:24;;;;;;;10.90;5.72;;;;;;;;;;5011861;28;20129;-56
2022/11/19 10:33:54;;;;;;;14.63;5.57;;;;;;;;;;5012543;28;20056;-54
2022/11/19 10:36:33;;;;;;;10.48;5.43;;;;;;;;;;5012887;28;20030;-55
2022/11/19 10:39:26;;;;;;;12.18;5.30;;;;;;;;;;5012956;28;20030;-56
2022/11/19 10:41:58;;;;;;;11.05;5.07;;;;;;;;;;4990125;28;20121;-56
2022/11/19 10:44:41;;;;;;;9.93;5.22;;;;;;;;;;5012810;28;20038;-55
2022/11/19 10:47:08;;;;;;;8.20;4.72;;;;;;;;;;5012830;28;20109;-54
2022/11/19 10:49:37;;;;;;;9.73;5.65;;;;;;;;;;5012459;28;20116;-57
2022/11/19 10:52:05;;;;;;;9.88;5.07;;;;;;;;;;5010679;28;20030;-54
2022/11/19 10:54:33;;;;;;;7.05;4.60;;;;;;;;;;5015024;28;20030;-54
2022/11/19 10:57:00;;;;;;;8.52;4.80;;;;;;;;;;5016162;28;20033;-57
2022/11/19 10:59:29;;;;;;;11.27;5.35;;;;;;;;;;5015996;28;20041;-54
2022/11/19 11:01:58;;;;;;;8.63;4.43;;;;;;;;;;5016104;28;20029;-57
2022/11/19 11:04:27;;;;;;;7.82;4.90;;;;;;;;;;5015895;28;20096;-53
2022/11/19 11:07:01;;;;;;;8.30;4.70;;;;;;;;;;5016006;28;20033;-57
2022/11/19 11:09:36;;;;;;;7.15;4.40;;;;;;;;;;5015850;28;20054;-55
2022/11/19 11:15:12;;;;;;;9.05;4.40;;;;;;;;;;5015120;28;20081;-57
2022/11/19 11:17:39;;;;;;;16.40;4.90;;;;;;;;;;5012397;28;20065;-56
2022/11/19 11:20:06;;;;;;;8.73;4.80;;;;;;;;;;5013650;28;20100;-57
2022/11/19 11:22:33;;;;;;;11.20;4.82;;;;;;;;;;5013841;28;20022;-55
2022/11/19 11:25:01;;;;;;;10.02;4.95;;;;;;;;;;5012160;28;20034;-51
2022/11/19 11:27:29;;;;;;;11.68;5.03;;;;;;;;;;5012297;28;20030;-55
2022/11/19 11:30:06;;;;;;;7.95;4.65;;;;;;;;;;5013652;28;20053;-59
2022/11/19 11:32:33;;;;;;;11.55;4.57;;;;;;;;;;5012086;28;20026;-55
2022/11/19 11:35:00;;;;;;;11.70;4.20;;;;;;;;;;5013556;28;20117;-54
2022/11/19 11:37:27;;;;;;;9.32;4.32;;;;;;;;;;5013483;28;20467;-56
2022/11/19 11:39:55;;;;;;;10.68;4.05;;;;;;;;;;5014362;28;20029;-55
2022/11/19 11:42:25;;;;;;;7.80;4.43;;;;;;;;;;5014277;28;20436;-56
2022/11/19 11:44:53;;;;;;;10.63;4.18;;;;;;;;;;5011567;28;20049;-51
2022/11/19 11:47:40;;;;;;;11.73;3.92;;;;;;;;;;5014351;28;20105;-53
2022/11/19 11:50:12;;;;;;;8.52;4.03;;;;;;;;;;5013972;28;20037;-56
2022/11/19 11:52:43;;;;;;;7.63;3.97;;;;;;;;;;5014326;28;20526;-56
2022/11/19 11:55:15;;;;;;;9.33;4.27;;;;;;;;;;4995712;28;20040;-55
2022/11/19 11:57:51;;;;;;;11.30;3.83;;;;;;;;;;4995964;28;20033;-55
2022/11/19 12:00:27;;;;;;;9.98;3.95;;;;;;;;;;4995952;28;20109;-53
2022/11/19 12:03:01;;;;;;;10.88;3.72;;;;;;;;;;4995599;28;20106;-56
2022/11/19 12:05:31;;;;;;;10.73;4.20;;;;;;;;;;4995858;28;20026;-56
2022/11/19 12:08:11;;;;;;;10.88;4.00;;;;;;;;;;4995972;28;20026;-56
2022/11/19 12:10:45;;;;;;;7.60;3.83;;;;;;;;;;4995884;28;20058;-56
2022/11/19 12:13:27;;;;;;;6.38;3.60;;;;;;;;;;4995729;28;20030;-55
2022/11/19 12:15:53;;;;;;;;;;;;;;;;;;4996164;28;20023;-53
2022/11/19 12:18:25;;;;;;;9.27;4.22;;;;;;;;;;4995607;28;20327;-54
2022/11/19 12:21:18;;;;;;;9.07;3.58;;;;;;;;;;4995666;28;20034;-54
2022/11/19 12:23:44;;;;;;;;;;;;;;;;;;4992092;28;20121;-54
2022/11/19 12:26:26;;;;;;;7.22;3.50;;;;;;;;;;4995547;28;19937;-56
2022/11/19 12:28:56;;;;;;;10.27;3.80;;;;;;;;;;4995523;28;20160;-56
2022/11/19 12:31:29;;;;;;;7.68;3.80;;;;;;;;;;4995814;28;20064;-56
2022/11/19 12:33:56;;;;;;;8.00;3.63;;;;;;;;;;4995132;28;20114;-51
2022/11/19 12:36:32;;;;;;;7.13;3.05;;;;;;;;;;4995318;28;20037;-57
2022/11/19 12:39:22;;;;;;;9.65;3.50;;;;;;;;;;4995267;28;20038;-55
2022/11/19 12:42:07;;;;;;;7.50;3.20;;;;;;;;;;4976518;28;20038;-54
2022/11/19 12:44:54;;;;;;;11.18;3.50;;;;;;;;;;4995076;28;20030;-55
2022/11/19 12:47:28;;;;;;;8.38;2.90;;;;;;;;;;4995188;28;20035;-55
2022/11/19 12:50:05;;;;;;;9.18;3.67;;;;;;;;;;4995195;28;20022;-54
2022/11/19 12:52:31;;;;;;;7.78;3.17;;;;;;;;;;4994970;28;20511;-55
2022/11/19 12:55:04;;;;;;;7.45;3.10;;;;;;;;;;4994933;28;20113;-56
2022/11/19 12:57:37;;;;;;;6.40;3.15;;;;;;;;;;4995028;28;20029;-57
2022/11/19 13:00:10;;;;;;;6.97;3.05;;;;;;;;;;4994958;28;20034;-56
2022/11/19 13:02:40;;;;;;;7.32;3.35;;;;;;;;;;4995934;28;20089;-53
2022/11/19 13:05:07;;;;;;;7.35;3.00;;;;;;;;;;5000980;28;20030;-57
2022/11/19 13:07:37;;;;;;;6.85;2.63;;;;;;;;;;5023021;28;20060;-54
2022/11/19 13:10:19;;;;;;;6.40;3.17;;;;;;;;;;5014297;28;20119;-53
2022/11/19 13:12:51;;;;;;;10.90;3.10;;;;;;;;;;5012654;28;20034;-55
2022/11/19 13:15:18;;;;;;;5.95;2.97;;;;;;;;;;5013370;28;20113;-52
2022/11/19 13:17:48;;;;;;;9.02;3.22;;;;;;;;;;5013964;28;20491;-55
2022/11/19 13:20:21;;;;;;;11.82;3.38;;;;;;;;;;5014144;28;20095;-54
2022/11/19 13:22:49;;;;;;;11.15;3.65;;;;;;;;;;5014112;28;20057;-50
2022/11/19 13:25:23;;;;;;;8.60;3.38;;;;;;;;;;5013940;28;20033;-54
2022/11/19 13:27:51;;;;;;;8.70;3.00;;;;;;;;;;5013845;28;20037;-56
2022/11/19 13:30:22;;;;;;;10.15;3.80;;;;;;;;;;5013856;28;20041;-55
2022/11/19 13:33:04;;;;;;;9.53;3.70;;;;;;;;;;5014111;28;20048;-51
2022/11/19 13:35:41;;;;;;;11.35;3.35;;;;;;;;;;5013847;28;20030;-55
2022/11/19 13:38:28;;;;;;;17.60;3.70;;;;;;;;;;5013012;28;20484;-56
2022/11/19 13:41:10;;;;;;;10.65;3.55;;;;;;;;;;5013771;28;20022;-57
2022/11/19 13:46:34;;;;;;;8.75;3.60;;;;;;;;;;5011806;28;20048;-53
2022/11/19 13:49:10;;;;;;;8.57;3.30;;;;;;;;;;4993849;28;20488;-54
2022/11/19 13:51:43;;;;;;;13.88;3.50;;;;;;;;;;5012409;28;20037;-56
2022/11/19 13:54:30;;;;;;;11.50;3.80;;;;;;;;;;5013342;28;20022;-53
2022/11/19 13:56:58;;;;;;;11.30;3.50;;;;;;;;;;5009544;28;20050;-55
2022/11/19 13:59:42;;;;;;;9.40;3.63;;;;;;;;;;5013464;28;20030;-53
2022/11/19 14:02:12;;;;;;;11.88;3.33;;;;;;;;;;5013466;28;20030;-56
2022/11/19 14:04:45;;;;;;;8.35;3.45;;;;;;;;;;5013379;28;20108;-56
2022/11/19 14:07:32;;;;;;;18.90;3.83;;;;;;;;;;5013435;28;20025;-56
2022/11/19 14:10:19;;;;;;;8.15;3.17;;;;;;;;;;5013578;28;20042;-53
2022/11/19 14:12:53;;;;;;;10.20;3.47;;;;;;;;;;5013298;28;20021;-57
2022/11/19 14:27:21;;;;;;;11.00;3.22;;;;;;;;;;5013147;28;20084;-53
2022/11/19 14:29:48;;;;;;;9.85;3.63;;;;;;;;;;5013092;28;20037;-54
2022/11/19 14:32:15;;;;;;;6.50;2.72;;;;;;;;;;5013790;28;20041;-51
2022/11/19 14:34:44;;;;;;;8.15;2.85;;;;;;;;;;5013094;28;20061;-57
2022/11/19 14:37:25;;;;;;;6.93;3.13;;;;;;;;;;5013085;28;20026;-55
2022/11/19 14:39:59;;;;;;;7.13;2.67;;;;;;;;;;5013034;28;20056;-52
2022/11/19 14:42:26;;;;;;;6.38;2.45;;;;;;;;;;5012952;28;20022;-56
2022/11/19 14:45:13;;;;;;;5.95;2.60;;;;;;;;;;5012880;28;20044;-51
2022/11/19 14:47:43;;;;;;;4.97;2.72;;;;;;;;;;5009167;28;20034;-55
2022/11/19 14:50:21;;;;;;;9.38;3.00;;;;;;;;;;5012952;28;20476;-54
2022/11/19 14:52:52;;;;;;;7.25;2.42;;;;;;;;;;5012810;28;20026;-57
2022/11/19 14:55:21;;;;;;;6.82;2.70;;;;;;;;;;5012773;28;20076;-51
2022/11/19 14:58:00;;;;;;;6.32;2.65;;;;;;;;;;5012889;28;20481;-55
2022/11/19 15:00:29;;;;;;;7.00;2.40;;;;;;;;;;5012793;28;20044;-54
2022/11/19 15:02:56;;;;;;;4.68;2.33;;;;;;;;;;5012719;28;20026;-51
2022/11/19 15:05:24;;;;;;;5.88;2.63;;;;;;;;;;5012857;28;20480;-57
2022/11/19 15:07:51;;;;;;;5.38;2.53;;;;;;;;;;5012770;28;20036;-56
2022/11/19 15:10:28;;;;;;;7.10;2.47;;;;;;;;;;5012692;28;20034;-56
2022/11/19 15:13:02;;;;;;;4.50;2.33;;;;;;;;;;5012560;28;20057;-57
2022/11/19 15:15:41;;;;;;;6.00;2.25;;;;;;;;;;5012708;28;20033;-54
2022/11/19 15:18:15;;;;;;;5.90;2.28;;;;;;;;;;5012439;28;20038;-57
2022/11/19 15:20:57;;;;;;;3.85;1.92;;;;;;;;;;5012587;28;20029;-53
2022/11/19 15:23:28;;;;;;;5.40;2.33;;;;;;;;;;5012560;28;20486;-56
2022/11/19 15:25:55;;;;;;;3.42;2.08;;;;;;;;;;5012666;28;20029;-56